Time,TemperatureF,DewpointF,PressureIn,WindDirection,WindDirectionDegrees,WindSpeedMPH,WindSpeedGustMPH,Humidity,HourlyPrecipIn,Conditions,Clouds,dailyrainin,SoftwareType,DateUTC
2013-04-22 00:01:00,42.0,35.0,29.84,NNW,338,0.0,0.0,77,0.00,,,0.05,,2013-04-22 07:01:00,
2013-04-22 00:11:00,42.0,35.0,29.84,NNW,338,0.0,0.0,77,0.00,,,0.05,,2013-04-22 07:11:00,
2013-04-22 00:21:00,42.0,35.0,29.84,East,90,0.0,0.0,77,0.00,,,0.05,,2013-04-22 07:21:00,
2013-04-22 00:31:00,42.0,35.0,29.84,SE,135,0.0,0.0,77,0.00,,,0.05,,2013-04-22 07:31:00,
2013-04-22 00:42:00,42.0,35.0,29.84,SE,135,0.0,0.0,77,0.00,,,0.05,,2013-04-22 07:42:00,
2013-04-22 00:52:00,42.0,35.0,29.85,ESE,113,0.0,0.0,77,0.00,,,0.05,,2013-04-22 07:52:00,
2013-04-22 01:01:00,41.0,35.0,29.85,ESE,113,0.0,0.0,78,0.00,,,0.05,,2013-04-22 08:01:00,
2013-04-22 01:11:00,41.0,35.0,29.85,ESE,113,0.0,0.0,78,0.00,,,0.05,,2013-04-22 08:11:00,
2013-04-22 01:21:00,41.0,35.0,29.86,East,90,0.0,0.0,78,0.00,,,0.05,,2013-04-22 08:21:00,
2013-04-22 01:31:00,41.0,35.0,29.86,East,90,0.0,0.0,78,0.00,,,0.05,,2013-04-22 08:31:00,
2013-04-22 01:41:00,41.0,35.0,29.86,East,90,0.0,0.0,78,0.00,,,0.05,,2013-04-22 08:41:00,
2013-04-22 01:52:00,41.0,35.0,29.86,East,90,0.0,0.0,79,0.00,,,0.05,,2013-04-22 08:52:00,
2013-04-22 02:01:00,40.0,34.0,29.87,ESE,113,0.0,1.0,79,0.00,,,0.05,,2013-04-22 09:01:00,
2013-04-22 02:11:00,40.0,34.0,29.87,ESE,113,0.0,1.0,79,0.00,,,0.05,,2013-04-22 09:11:00,
2013-04-22 02:21:00,40.0,34.0,29.87,SE,135,1.0,1.0,80,0.00,,,0.05,,2013-04-22 09:21:00,
2013-04-22 02:32:00,40.0,34.0,29.87,ESE,113,1.0,1.0,80,0.00,,,0.05,,2013-04-22 09:32:00,
2013-04-22 02:42:00,40.0,34.0,29.87,ESE,113,1.0,1.0,80,0.00,,,0.05,,2013-04-22 09:42:00,
2013-04-22 02:52:00,40.0,35.0,29.87,East,90,0.0,0.0,82,0.00,,,0.05,,2013-04-22 09:52:00,
2013-04-22 03:03:00,40.0,35.0,29.88,ESE,113,0.0,0.0,83,0.00,,,0.05,,2013-04-22 10:03:00,
2013-04-22 03:12:00,40.0,35.0,29.88,ESE,113,0.0,0.0,83,0.00,,,0.05,,2013-04-22 10:12:00,
2013-04-22 03:22:00,40.0,35.0,29.88,ESE,113,0.0,0.0,83,0.00,,,0.05,,2013-04-22 10:22:00,
2013-04-22 03:32:00,40.0,36.0,29.88,ESE,113,0.0,0.0,84,0.00,,,0.05,,2013-04-22 10:32:00,
2013-04-22 03:42:00,40.0,36.0,29.88,ESE,113,0.0,0.0,84,0.00,,,0.05,,2013-04-22 10:42:00,
2013-04-22 03:52:00,39.0,35.0,29.88,East,90,0.0,0.0,84,0.00,,,0.05,,2013-04-22 10:52:00,
2013-04-22 04:02:00,39.0,35.0,29.89,SE,135,0.0,0.0,85,0.00,,,0.05,,2013-04-22 11:02:00,
2013-04-22 04:12:00,39.0,35.0,29.90,West,270,0.0,0.0,85,0.00,,,0.05,,2013-04-22 11:12:00,
2013-04-22 04:22:00,39.0,35.0,29.90,West,270,0.0,0.0,85,0.00,,,0.05,,2013-04-22 11:22:00,
2013-04-22 04:32:00,38.0,34.0,29.90,East,90,0.0,0.0,85,0.00,,,0.05,,2013-04-22 11:32:00,
2013-04-22 04:42:00,38.0,34.0,29.90,East,90,0.0,0.0,85,0.00,,,0.05,,2013-04-22 11:42:00,
2013-04-22 04:52:00,38.0,34.0,29.90,East,90,1.0,1.0,85,0.00,,,0.05,,2013-04-22 11:52:00,
2013-04-22 05:01:00,38.0,34.0,29.90,East,90,0.0,1.0,85,0.00,,,0.05,,2013-04-22 12:01:00,
2013-04-22 05:12:00,38.0,34.0,29.90,East,90,0.0,1.0,85,0.00,,,0.05,,2013-04-22 12:12:00,
2013-04-22 05:21:00,38.0,34.0,29.91,East,90,0.0,1.0,86,0.00,,,0.05,,2013-04-22 12:21:00,
2013-04-22 05:31:00,38.0,34.0,29.91,East,90,0.0,0.0,86,0.00,,,0.05,,2013-04-22 12:31:00,
2013-04-22 05:42:00,38.0,34.0,29.91,East,90,0.0,0.0,86,0.00,,,0.05,,2013-04-22 12:42:00,
2013-04-22 05:52:00,37.0,34.0,29.92,ESE,113,0.0,1.0,87,0.00,,,0.05,,2013-04-22 12:52:00,
2013-04-22 06:01:00,37.0,34.0,29.92,ENE,68,0.0,0.0,87,0.00,,,0.05,,2013-04-22 13:01:00,
2013-04-22 06:11:00,37.0,34.0,29.92,ENE,68,0.0,0.0,87,0.00,,,0.05,,2013-04-22 13:11:00,
2013-04-22 06:22:00,37.0,34.0,29.93,ESE,113,1.0,1.0,87,0.00,,,0.05,,2013-04-22 13:22:00,
2013-04-22 06:31:00,37.0,34.0,29.93,ESE,113,1.0,1.0,87,0.00,,,0.05,,2013-04-22 13:31:00,
2013-04-22 06:41:00,37.0,34.0,29.93,ESE,113,1.0,1.0,87,0.00,,,0.05,,2013-04-22 13:41:00,
2013-04-22 06:52:00,37.0,34.0,29.93,East,90,1.0,1.0,88,0.00,,,0.05,,2013-04-22 13:52:00,
2013-04-22 07:01:00,37.0,34.0,29.93,ESE,113,0.0,0.0,88,0.00,,,0.05,,2013-04-22 14:01:00,
2013-04-22 07:11:00,37.0,34.0,29.93,ESE,113,0.0,0.0,88,0.00,,,0.05,,2013-04-22 14:11:00,
2013-04-22 07:21:00,37.0,34.0,29.94,East,90,0.0,1.0,87,0.00,,,0.05,,2013-04-22 14:21:00,
2013-04-22 07:33:00,39.0,35.0,29.94,ESE,113,0.0,0.0,87,0.00,,,0.05,,2013-04-22 14:33:00,
2013-04-22 07:42:00,39.0,35.0,29.94,ESE,113,0.0,0.0,87,0.00,,,0.05,,2013-04-22 14:42:00,
2013-04-22 07:52:00,41.0,37.0,29.95,East,90,0.0,2.0,85,0.00,,,0.05,,2013-04-22 14:52:00,
2013-04-22 08:01:00,41.0,37.0,29.95,SSW,203,0.0,2.0,84,0.00,,,0.05,,2013-04-22 15:01:00,
2013-04-22 08:11:00,41.0,37.0,29.95,SSW,203,0.0,2.0,84,0.00,,,0.05,,2013-04-22 15:11:00,
2013-04-22 08:22:00,44.0,37.0,29.96,WNW,293,0.0,2.0,75,0.00,,,0.05,,2013-04-22 15:22:00,
2013-04-22 08:53:00,45.0,37.0,29.96,NW,315,1.0,2.0,74,0.00,,,0.05,,2013-04-22 15:53:00,
2013-04-22 09:02:00,44.0,37.0,29.97,NW,315,1.0,2.0,76,0.00,,,0.05,,2013-04-22 16:02:00,
2013-04-22 09:12:00,44.0,37.0,29.97,NW,315,1.0,2.0,76,0.00,,,0.05,,2013-04-22 16:12:00,
2013-04-22 09:22:00,45.0,38.0,29.97,West,270,1.0,2.0,76,0.00,,,0.05,,2013-04-22 16:22:00,
2013-04-22 09:32:00,45.0,38.0,29.97,ENE,68,1.0,1.0,77,0.00,,,0.05,,2013-04-22 16:32:00,
2013-04-22 09:41:00,45.0,38.0,29.97,ENE,68,1.0,1.0,77,0.00,,,0.05,,2013-04-22 16:41:00,
2013-04-22 09:52:00,45.0,38.0,29.96,NW,315,1.0,1.0,75,0.00,,,0.05,,2013-04-22 16:52:00,
2013-04-22 10:02:00,45.0,38.0,29.96,NW,315,1.0,1.0,75,0.00,,,0.05,,2013-04-22 17:02:00,
2013-04-22 10:12:00,45.0,38.0,29.96,NW,315,1.0,1.0,75,0.00,,,0.05,,2013-04-22 17:12:00,
2013-04-22 10:21:00,48.0,39.0,29.97,WNW,293,2.0,4.0,71,0.00,,,0.05,,2013-04-22 17:21:00,
2013-04-22 10:31:00,48.0,39.0,29.97,WNW,293,2.0,4.0,71,0.00,,,0.05,,2013-04-22 17:31:00,
2013-04-22 10:43:00,48.0,39.0,29.97,WNW,293,2.0,4.0,71,0.00,,,0.05,,2013-04-22 17:43:00,
2013-04-22 11:01:00,53.0,38.0,29.98,West,270,2.0,3.0,57,0.00,,,0.05,,2013-04-22 18:01:00,
2013-04-22 11:21:00,54.0,38.0,29.98,West,270,2.0,5.0,55,0.00,,,0.05,,2013-04-22 18:21:00,
2013-04-22 11:31:00,55.0,38.0,29.98,West,270,2.0,3.0,53,0.00,,,0.03,,2013-04-22 18:31:00,
2013-04-22 11:52:00,55.0,37.0,29.99,SSW,203,2.0,7.0,51,0.00,,,0.03,,2013-04-22 18:52:00,
2013-04-22 12:01:00,57.0,38.0,29.99,NNE,23,1.0,4.0,49,0.00,,,0.03,,2013-04-22 19:01:00,
2013-04-22 12:21:00,56.0,37.0,29.99,WNW,293,2.0,3.0,48,0.00,,,0.03,,2013-04-22 19:21:00,
2013-04-22 12:32:00,57.0,36.0,29.99,North,0,2.0,3.0,46,0.00,,,0.03,,2013-04-22 19:32:00,
2013-04-22 12:42:00,57.0,36.0,29.99,North,0,2.0,3.0,46,0.00,,,0.03,,2013-04-22 19:42:00,
2013-04-22 12:52:00,58.0,36.0,29.98,WNW,293,2.0,3.0,43,0.00,,,0.03,,2013-04-22 19:52:00,
2013-04-22 13:01:00,58.0,34.0,29.97,NNW,338,2.0,5.0,41,0.00,,,0.03,,2013-04-22 20:01:00,
2013-04-22 13:11:00,58.0,34.0,29.97,NNW,338,2.0,5.0,41,0.00,,,0.03,,2013-04-22 20:11:00,
2013-04-22 13:22:00,58.0,35.0,29.97,West,270,2.0,3.0,42,0.00,,,0.03,,2013-04-22 20:22:00,
2013-04-22 13:31:00,60.0,36.0,29.95,WNW,293,2.0,5.0,41,0.00,,,0.03,,2013-04-22 20:31:00,
2013-04-22 13:51:00,59.0,34.0,29.95,NNE,23,3.0,6.0,39,0.00,,,0.03,,2013-04-22 20:51:00,
2013-04-22 14:01:00,59.0,33.0,29.95,WNW,293,3.0,6.0,37,0.00,,,0.03,,2013-04-22 21:01:00,
2013-04-22 14:11:00,59.0,33.0,29.95,WNW,293,3.0,6.0,37,0.00,,,0.03,,2013-04-22 21:11:00,
2013-04-22 14:21:00,60.0,33.0,29.95,West,270,2.0,6.0,36,0.00,,,0.00,,2013-04-22 21:21:00,
2013-04-22 14:32:00,61.0,34.0,29.95,West,270,2.0,5.0,36,0.00,,,0.00,,2013-04-22 21:32:00,
2013-04-22 14:42:00,61.0,34.0,29.95,West,270,2.0,5.0,36,0.00,,,0.00,,2013-04-22 21:42:00,
2013-04-22 14:53:00,61.0,32.0,29.95,SW,225,3.0,4.0,34,0.00,,,0.00,,2013-04-22 21:53:00,
2013-04-22 15:02:00,61.0,29.0,29.95,NNW,338,3.0,5.0,30,0.00,,,0.00,,2013-04-22 22:02:00,
2013-04-22 15:12:00,61.0,29.0,29.95,NNW,338,3.0,5.0,30,0.00,,,0.00,,2013-04-22 22:12:00,
2013-04-22 15:22:00,61.0,31.0,29.95,SW,225,3.0,5.0,32,0.00,,,0.00,,2013-04-22 22:22:00,
2013-04-22 15:32:00,61.0,30.0,29.94,SSW,203,3.0,4.0,31,0.00,,,0.00,,2013-04-22 22:32:00,
2013-04-22 15:42:00,61.0,30.0,29.94,SSW,203,3.0,4.0,31,0.00,,,0.00,,2013-04-22 22:42:00,
2013-04-22 15:52:00,61.0,30.0,29.95,NW,315,3.0,8.0,31,0.00,,,0.00,,2013-04-22 22:52:00,
2013-04-22 16:02:00,61.0,29.0,29.94,NNW,338,4.0,7.0,29,0.00,,,0.00,,2013-04-22 23:02:00,
2013-04-22 16:11:00,62.0,29.0,29.94,NNE,23,4.0,6.0,29,0.00,,,0.00,,2013-04-22 23:11:00,
2013-04-22 16:21:00,62.0,29.0,29.94,NNE,23,4.0,6.0,29,0.00,,,0.00,,2013-04-22 23:21:00,
2013-04-22 16:32:00,61.0,28.0,29.93,NW,315,3.0,6.0,28,0.00,,,0.00,,2013-04-22 23:32:00,
2013-04-22 16:42:00,61.0,28.0,29.93,NW,315,3.0,6.0,28,0.00,,,0.00,,2013-04-22 23:42:00,
2013-04-22 16:52:00,61.0,28.0,29.93,East,90,3.0,4.0,28,0.00,,,0.00,,2013-04-22 23:52:00,
2013-04-22 17:01:00,61.0,26.0,29.92,North,0,4.0,10.0,26,0.00,,,0.00,,2013-04-23 00:01:00,
2013-04-22 17:12:00,61.0,26.0,29.92,North,0,4.0,10.0,26,0.00,,,0.00,,2013-04-23 00:12:00,
2013-04-22 17:21:00,61.0,26.0,29.92,North,0,4.0,10.0,26,0.00,,,0.00,,2013-04-23 00:21:00,
2013-04-22 17:31:00,61.0,28.0,29.92,NNE,23,2.0,3.0,28,0.00,,,0.00,,2013-04-23 00:31:00,
2013-04-22 17:42:00,61.0,28.0,29.92,NNE,23,2.0,3.0,28,0.00,,,0.00,,2013-04-23 00:42:00,
2013-04-22 17:51:00,60.0,25.0,29.92,NNW,338,3.0,5.0,26,0.00,,,0.00,,2013-04-23 00:51:00,
2013-04-22 18:01:00,60.0,26.0,29.91,NW,315,3.0,6.0,27,0.00,,,0.00,,2013-04-23 01:01:00,
2013-04-22 18:11:00,60.0,26.0,29.91,NW,315,3.0,6.0,27,0.00,,,0.00,,2013-04-23 01:11:00,
2013-04-22 18:21:00,60.0,26.0,29.91,West,270,3.0,8.0,27,0.00,,,0.00,,2013-04-23 01:21:00,
2013-04-22 18:31:00,60.0,27.0,29.91,NNE,23,2.0,4.0,28,0.00,,,0.00,,2013-04-23 01:31:00,
2013-04-22 18:41:00,60.0,27.0,29.91,NNE,23,2.0,4.0,28,0.00,,,0.00,,2013-04-23 01:41:00,
2013-04-22 18:52:00,60.0,27.0,29.91,NNE,23,2.0,4.0,28,0.00,,,0.00,,2013-04-23 01:52:00,
2013-04-22 19:01:00,58.0,26.0,29.91,NNW,338,3.0,5.0,29,0.00,,,0.00,,2013-04-23 02:01:00,
2013-04-22 19:12:00,58.0,26.0,29.91,NNW,338,3.0,5.0,29,0.00,,,0.00,,2013-04-23 02:12:00,
2013-04-22 19:21:00,57.0,25.0,29.91,WNW,293,3.0,10.0,29,0.00,,,0.00,,2013-04-23 02:21:00,
2013-04-22 19:32:00,57.0,25.0,29.92,NNW,338,2.0,4.0,29,0.00,,,0.00,,2013-04-23 02:32:00,
2013-04-22 19:42:00,57.0,25.0,29.92,NNW,338,2.0,4.0,29,0.00,,,0.00,,2013-04-23 02:42:00,
2013-04-22 19:52:00,57.0,26.0,29.91,NNW,338,1.0,2.0,30,0.00,,,0.00,,2013-04-23 02:52:00,
2013-04-22 20:01:00,55.0,24.0,29.91,NNW,338,1.0,2.0,30,0.00,,,0.00,,2013-04-23 03:01:00,
2013-04-22 20:11:00,55.0,24.0,29.91,NNW,338,1.0,2.0,30,0.00,,,0.00,,2013-04-23 03:11:00,
2013-04-22 20:21:00,55.0,24.0,29.91,NNW,338,1.0,2.0,30,0.00,,,0.00,,2013-04-23 03:21:00,
2013-04-22 20:32:00,52.0,24.0,29.91,ENE,68,0.0,0.0,33,0.00,,,0.00,,2013-04-23 03:32:00,
2013-04-22 20:43:00,52.0,24.0,29.91,ENE,68,0.0,0.0,33,0.00,,,0.00,,2013-04-23 03:43:00,
2013-04-22 20:53:00,50.0,23.0,29.93,NE,45,0.0,0.0,34,0.00,,,0.00,,2013-04-23 03:53:00,
2013-04-22 21:03:00,50.0,23.0,29.91,East,90,0.0,0.0,34,0.00,,,0.00,,2013-04-23 04:03:00,
2013-04-22 21:12:00,50.0,23.0,29.91,East,90,0.0,0.0,34,0.00,,,0.00,,2013-04-23 04:12:00,
2013-04-22 21:22:00,49.0,23.0,29.92,ENE,68,0.0,0.0,35,0.00,,,0.00,,2013-04-23 04:22:00,
2013-04-22 21:32:00,49.0,23.0,29.92,NNE,23,0.0,0.0,35,0.00,,,0.00,,2013-04-23 04:32:00,
2013-04-22 21:43:00,49.0,23.0,29.92,NNE,23,0.0,0.0,35,0.00,,,0.00,,2013-04-23 04:43:00,
2013-04-22 21:53:00,48.0,23.0,29.91,East,90,0.0,0.0,37,0.00,,,0.00,,2013-04-23 04:53:00,
2013-04-22 22:02:00,48.0,24.0,29.91,ESE,113,0.0,0.0,39,0.00,,,0.00,,2013-04-23 05:02:00,
2013-04-22 22:12:00,48.0,24.0,29.91,ESE,113,0.0,0.0,39,0.00,,,0.00,,2013-04-23 05:12:00,
2013-04-22 22:22:00,47.0,25.0,29.91,East,90,0.0,0.0,42,0.00,,,0.00,,2013-04-23 05:22:00,
2013-04-22 22:32:00,46.0,26.0,29.91,ESE,113,0.0,0.0,45,0.00,,,0.00,,2013-04-23 05:32:00,
2013-04-22 22:42:00,46.0,26.0,29.91,ESE,113,0.0,0.0,45,0.00,,,0.00,,2013-04-23 05:42:00,
2013-04-22 22:52:00,45.0,26.0,29.92,East,90,0.0,0.0,47,0.00,,,0.00,,2013-04-23 05:52:00,
2013-04-22 23:01:00,45.0,27.0,29.90,East,90,0.0,0.0,49,0.00,,,0.00,,2013-04-23 06:01:00,
2013-04-22 23:12:00,45.0,27.0,29.90,East,90,0.0,0.0,49,0.00,,,0.00,,2013-04-23 06:12:00,
2013-04-22 23:21:00,45.0,27.0,29.91,East,90,0.0,0.0,50,0.00,,,0.00,,2013-04-23 06:21:00,
2013-04-22 23:32:00,45.0,27.0,29.91,NNE,23,0.0,0.0,50,0.00,,,0.00,,2013-04-23 06:32:00,
2013-04-22 23:41:00,45.0,27.0,29.91,NNE,23,0.0,0.0,50,0.00,,,0.00,,2013-04-23 06:41:00,
2013-04-22 23:52:00,44.0,27.0,29.91,SE,135,0.0,0.0,51,0.00,,,0.00,,2013-04-23 06:52:00,